sensor_id;sensor_type;location;lat;lon;timestamp;P1;durP1;ratioP1;P2;durP2;ratioP2
58581;SDS011;44361;51.476;5.700;2023-08-30T00:00:10;10.98;;;8.45;;
58581;SDS011;44361;51.476;5.700;2023-08-30T00:02:36;14.57;;;9.70;;
58581;SDS011;44361;51.476;5.700;2023-08-30T00:05:02;11.80;;;8.48;;
58581;SDS011;44361;51.476;5.700;2023-08-30T00:07:29;14.95;;;9.13;;
58581;SDS011;44361;51.476;5.700;2023-08-30T00:09:55;16.02;;;8.98;;
58581;SDS011;44361;51.476;5.700;2023-08-30T00:12:23;16.23;;;9.07;;
58581;SDS011;44361;51.476;5.700;2023-08-30T00:14:49;13.68;;;8.70;;
58581;SDS011;44361;51.476;5.700;2023-08-30T00:17:15;14.80;;;8.88;;
58581;SDS011;44361;51.476;5.700;2023-08-30T00:19:41;20.92;;;10.52;;
58581;SDS011;44361;51.476;5.700;2023-08-30T00:22:06;20.80;;;9.90;;
58581;SDS011;44361;51.476;5.700;2023-08-30T00:24:32;15.23;;;9.52;;
58581;SDS011;44361;51.476;5.700;2023-08-30T00:26:58;17.17;;;9.60;;
58581;SDS011;44361;51.476;5.700;2023-08-30T00:29:24;16.35;;;8.45;;
58581;SDS011;44361;51.476;5.700;2023-08-30T00:31:50;17.80;;;9.38;;
58581;SDS011;44361;51.476;5.700;2023-08-30T00:34:15;16.48;;;9.65;;
58581;SDS011;44361;51.476;5.700;2023-08-30T00:36:41;17.17;;;9.68;;
58581;SDS011;44361;51.476;5.700;2023-08-30T00:39:06;17.77;;;10.10;;
58581;SDS011;44361;51.476;5.700;2023-08-30T00:41:33;13.63;;;9.05;;
58581;SDS011;44361;51.476;5.700;2023-08-30T00:43:59;20.15;;;9.57;;
58581;SDS011;44361;51.476;5.700;2023-08-30T00:46:25;18.13;;;10.32;;
58581;SDS011;44361;51.476;5.700;2023-08-30T00:48:50;15.13;;;9.68;;
58581;SDS011;44361;51.476;5.700;2023-08-30T00:51:16;17.15;;;10.00;;
58581;SDS011;44361;51.476;5.700;2023-08-30T00:53:41;38.17;;;23.65;;
58581;SDS011;44361;51.476;5.700;2023-08-30T00:56:08;23.00;;;11.50;;
58581;SDS011;44361;51.476;5.700;2023-08-30T00:58:34;17.13;;;10.63;;
58581;SDS011;44361;51.476;5.700;2023-08-30T01:01:00;19.92;;;10.25;;
58581;SDS011;44361;51.476;5.700;2023-08-30T01:03:25;19.02;;;10.52;;
58581;SDS011;44361;51.476;5.700;2023-08-30T01:05:51;16.23;;;10.57;;
58581;SDS011;44361;51.476;5.700;2023-08-30T01:08:17;16.02;;;10.20;;
58581;SDS011;44361;51.476;5.700;2023-08-30T01:10:45;19.65;;;11.15;;
58581;SDS011;44361;51.476;5.700;2023-08-30T01:13:18;18.95;;;11.38;;
58581;SDS011;44361;51.476;5.700;2023-08-30T01:15:46;17.45;;;10.40;;
58581;SDS011;44361;51.476;5.700;2023-08-30T01:18:13;15.30;;;9.50;;
58581;SDS011;44361;51.476;5.700;2023-08-30T01:20:42;17.42;;;10.70;;
58581;SDS011;44361;51.476;5.700;2023-08-30T01:28:38;17.08;;;9.77;;
58581;SDS011;44361;51.476;5.700;2023-08-30T01:31:05;16.40;;;10.90;;
58581;SDS011;44361;51.476;5.700;2023-08-30T01:33:34;17.42;;;10.35;;
58581;SDS011;44361;51.476;5.700;2023-08-30T01:36:00;16.92;;;10.55;;
58581;SDS011;44361;51.476;5.700;2023-08-30T01:38:26;16.88;;;10.68;;
58581;SDS011;44361;51.476;5.700;2023-08-30T01:40:54;16.98;;;9.48;;
58581;SDS011;44361;51.476;5.700;2023-08-30T01:43:21;17.70;;;10.10;;
58581;SDS011;44361;51.476;5.700;2023-08-30T01:45:47;17.08;;;10.57;;
58581;SDS011;44361;51.476;5.700;2023-08-30T01:48:13;14.30;;;9.73;;
58581;SDS011;44361;51.476;5.700;2023-08-30T01:50:42;18.27;;;10.27;;
58581;SDS011;44361;51.476;5.700;2023-08-30T01:53:10;14.05;;;9.38;;
58581;SDS011;44361;51.476;5.700;2023-08-30T01:55:37;14.88;;;9.30;;
58581;SDS011;44361;51.476;5.700;2023-08-30T01:58:05;16.52;;;10.48;;
58581;SDS011;44361;51.476;5.700;2023-08-30T02:00:31;18.17;;;10.35;;
58581;SDS011;44361;51.476;5.700;2023-08-30T02:02:57;16.80;;;9.38;;
58581;SDS011;44361;51.476;5.700;2023-08-30T02:05:22;16.42;;;10.25;;
58581;SDS011;44361;51.476;5.700;2023-08-30T02:07:55;15.88;;;10.20;;
58581;SDS011;44361;51.476;5.700;2023-08-30T02:10:28;17.85;;;11.13;;
58581;SDS011;44361;51.476;5.700;2023-08-30T02:12:56;19.42;;;9.93;;
58581;SDS011;44361;51.476;5.700;2023-08-30T02:15:24;15.20;;;10.05;;
58581;SDS011;44361;51.476;5.700;2023-08-30T02:17:51;18.55;;;11.25;;
58581;SDS011;44361;51.476;5.700;2023-08-30T02:20:17;19.08;;;11.57;;
58581;SDS011;44361;51.476;5.700;2023-08-30T02:22:43;17.40;;;11.00;;
58581;SDS011;44361;51.476;5.700;2023-08-30T02:25:09;24.10;;;11.15;;
58581;SDS011;44361;51.476;5.700;2023-08-30T02:27:35;18.65;;;11.07;;
58581;SDS011;44361;51.476;5.700;2023-08-30T02:30:01;20.85;;;11.45;;
58581;SDS011;44361;51.476;5.700;2023-08-30T02:32:27;16.92;;;11.30;;
58581;SDS011;44361;51.476;5.700;2023-08-30T02:34:53;19.67;;;11.30;;
58581;SDS011;44361;51.476;5.700;2023-08-30T02:37:19;20.05;;;12.90;;
58581;SDS011;44361;51.476;5.700;2023-08-30T02:39:45;20.95;;;11.93;;
58581;SDS011;44361;51.476;5.700;2023-08-30T02:42:10;20.98;;;11.70;;
58581;SDS011;44361;51.476;5.700;2023-08-30T02:44:36;21.90;;;13.88;;
58581;SDS011;44361;51.476;5.700;2023-08-30T02:47:01;21.85;;;13.73;;
58581;SDS011;44361;51.476;5.700;2023-08-30T02:49:27;25.15;;;13.60;;
58581;SDS011;44361;51.476;5.700;2023-08-30T02:51:52;24.52;;;13.45;;
58581;SDS011;44361;51.476;5.700;2023-08-30T02:54:18;24.63;;;14.60;;
58581;SDS011;44361;51.476;5.700;2023-08-30T02:56:44;24.95;;;14.98;;
58581;SDS011;44361;51.476;5.700;2023-08-30T02:59:10;27.10;;;16.08;;
58581;SDS011;44361;51.476;5.700;2023-08-30T03:01:37;29.08;;;16.00;;
58581;SDS011;44361;51.476;5.700;2023-08-30T03:04:06;27.23;;;15.50;;
58581;SDS011;44361;51.476;5.700;2023-08-30T03:06:32;23.50;;;15.55;;
58581;SDS011;44361;51.476;5.700;2023-08-30T03:08:58;24.73;;;14.70;;
58581;SDS011;44361;51.476;5.700;2023-08-30T03:11:24;25.88;;;13.70;;
58581;SDS011;44361;51.476;5.700;2023-08-30T03:13:50;24.08;;;14.10;;
58581;SDS011;44361;51.476;5.700;2023-08-30T03:16:16;22.45;;;13.90;;
58581;SDS011;44361;51.476;5.700;2023-08-30T03:18:42;24.15;;;13.40;;
58581;SDS011;44361;51.476;5.700;2023-08-30T03:21:09;24.00;;;13.23;;
58581;SDS011;44361;51.476;5.700;2023-08-30T03:23:35;22.27;;;13.45;;
58581;SDS011;44361;51.476;5.700;2023-08-30T03:26:11;20.80;;;13.65;;
58581;SDS011;44361;51.476;5.700;2023-08-30T03:28:38;21.05;;;13.63;;
58581;SDS011;44361;51.476;5.700;2023-08-30T03:31:14;20.90;;;13.50;;
58581;SDS011;44361;51.476;5.700;2023-08-30T03:33:41;19.67;;;13.00;;
58581;SDS011;44361;51.476;5.700;2023-08-30T03:36:09;21.30;;;13.55;;
58581;SDS011;44361;51.476;5.700;2023-08-30T03:38:36;25.10;;;14.13;;
58581;SDS011;44361;51.476;5.700;2023-08-30T03:41:02;19.98;;;13.70;;
58581;SDS011;44361;51.476;5.700;2023-08-30T03:43:28;22.52;;;14.43;;
58581;SDS011;44361;51.476;5.700;2023-08-30T03:45:54;21.83;;;13.70;;
58581;SDS011;44361;51.476;5.700;2023-08-30T03:48:20;22.25;;;13.63;;
58581;SDS011;44361;51.476;5.700;2023-08-30T03:50:45;25.10;;;14.95;;
58581;SDS011;44361;51.476;5.700;2023-08-30T03:53:11;22.13;;;14.43;;
58581;SDS011;44361;51.476;5.700;2023-08-30T03:55:36;24.13;;;14.65;;
58581;SDS011;44361;51.476;5.700;2023-08-30T03:58:02;23.52;;;14.90;;
58581;SDS011;44361;51.476;5.700;2023-08-30T04:00:28;25.35;;;14.93;;
58581;SDS011;44361;51.476;5.700;2023-08-30T04:02:53;27.20;;;16.73;;
58581;SDS011;44361;51.476;5.700;2023-08-30T04:05:19;29.25;;;15.57;;
58581;SDS011;44361;51.476;5.700;2023-08-30T04:07:45;24.67;;;15.13;;
58581;SDS011;44361;51.476;5.700;2023-08-30T04:10:10;28.45;;;17.17;;
58581;SDS011;44361;51.476;5.700;2023-08-30T04:12:35;28.33;;;16.60;;
58581;SDS011;44361;51.476;5.700;2023-08-30T04:15:01;26.30;;;18.25;;
58581;SDS011;44361;51.476;5.700;2023-08-30T04:17:27;30.60;;;17.50;;
58581;SDS011;44361;51.476;5.700;2023-08-30T04:19:53;30.25;;;18.30;;
58581;SDS011;44361;51.476;5.700;2023-08-30T04:22:19;29.83;;;18.02;;
58581;SDS011;44361;51.476;5.700;2023-08-30T04:24:45;29.38;;;18.50;;
58581;SDS011;44361;51.476;5.700;2023-08-30T04:27:11;30.77;;;18.50;;
58581;SDS011;44361;51.476;5.700;2023-08-30T04:29:37;32.53;;;17.67;;
58581;SDS011;44361;51.476;5.700;2023-08-30T04:32:03;28.85;;;18.50;;
58581;SDS011;44361;51.476;5.700;2023-08-30T04:34:30;32.40;;;18.98;;
58581;SDS011;44361;51.476;5.700;2023-08-30T04:36:55;27.60;;;18.48;;
58581;SDS011;44361;51.476;5.700;2023-08-30T04:39:21;34.03;;;18.45;;
58581;SDS011;44361;51.476;5.700;2023-08-30T04:41:47;30.95;;;19.08;;
58581;SDS011;44361;51.476;5.700;2023-08-30T04:44:12;32.65;;;19.05;;
58581;SDS011;44361;51.476;5.700;2023-08-30T04:46:38;28.13;;;18.30;;
58581;SDS011;44361;51.476;5.700;2023-08-30T04:49:03;34.75;;;18.15;;
58581;SDS011;44361;51.476;5.700;2023-08-30T04:51:29;27.52;;;17.55;;
58581;SDS011;44361;51.476;5.700;2023-08-30T04:53:55;28.15;;;18.05;;
58581;SDS011;44361;51.476;5.700;2023-08-30T04:56:20;31.15;;;17.65;;
58581;SDS011;44361;51.476;5.700;2023-08-30T04:58:46;25.85;;;17.65;;
58581;SDS011;44361;51.476;5.700;2023-08-30T05:01:11;28.65;;;17.48;;
58581;SDS011;44361;51.476;5.700;2023-08-30T05:03:38;28.00;;;17.65;;
58581;SDS011;44361;51.476;5.700;2023-08-30T05:06:04;29.27;;;17.25;;
58581;SDS011;44361;51.476;5.700;2023-08-30T05:08:30;28.52;;;18.27;;
58581;SDS011;44361;51.476;5.700;2023-08-30T05:10:56;29.40;;;18.85;;
58581;SDS011;44361;51.476;5.700;2023-08-30T05:13:21;32.85;;;18.95;;
58581;SDS011;44361;51.476;5.700;2023-08-30T05:15:47;32.58;;;18.55;;
58581;SDS011;44361;51.476;5.700;2023-08-30T05:18:14;29.05;;;18.10;;
58581;SDS011;44361;51.476;5.700;2023-08-30T05:20:40;28.73;;;17.65;;
58581;SDS011;44361;51.476;5.700;2023-08-30T05:23:05;28.95;;;17.70;;
58581;SDS011;44361;51.476;5.700;2023-08-30T05:25:31;31.08;;;18.58;;
58581;SDS011;44361;51.476;5.700;2023-08-30T05:27:56;26.65;;;17.30;;
58581;SDS011;44361;51.476;5.700;2023-08-30T05:30:22;25.48;;;16.48;;
58581;SDS011;44361;51.476;5.700;2023-08-30T05:32:47;25.90;;;16.75;;
58581;SDS011;44361;51.476;5.700;2023-08-30T05:35:13;26.52;;;16.27;;
58581;SDS011;44361;51.476;5.700;2023-08-30T05:37:39;22.05;;;15.55;;
58581;SDS011;44361;51.476;5.700;2023-08-30T05:40:04;25.27;;;16.00;;
58581;SDS011;44361;51.476;5.700;2023-08-30T05:42:30;25.88;;;15.98;;
58581;SDS011;44361;51.476;5.700;2023-08-30T05:44:56;24.33;;;15.73;;
58581;SDS011;44361;51.476;5.700;2023-08-30T05:47:22;23.90;;;15.23;;
58581;SDS011;44361;51.476;5.700;2023-08-30T05:49:47;24.27;;;15.45;;
58581;SDS011;44361;51.476;5.700;2023-08-30T05:52:14;25.17;;;15.63;;
58581;SDS011;44361;51.476;5.700;2023-08-30T05:54:41;22.70;;;14.95;;
58581;SDS011;44361;51.476;5.700;2023-08-30T05:57:07;24.85;;;15.85;;
58581;SDS011;44361;51.476;5.700;2023-08-30T05:59:33;25.40;;;14.88;;
58581;SDS011;44361;51.476;5.700;2023-08-30T06:02:00;26.90;;;16.15;;
58581;SDS011;44361;51.476;5.700;2023-08-30T06:04:25;24.00;;;15.57;;
58581;SDS011;44361;51.476;5.700;2023-08-30T06:06:51;24.77;;;14.65;;
58581;SDS011;44361;51.476;5.700;2023-08-30T06:09:16;25.70;;;14.73;;
58581;SDS011;44361;51.476;5.700;2023-08-30T06:11:42;25.38;;;16.63;;
58581;SDS011;44361;51.476;5.700;2023-08-30T06:14:07;25.52;;;15.15;;
58581;SDS011;44361;51.476;5.700;2023-08-30T06:16:33;26.88;;;16.45;;
58581;SDS011;44361;51.476;5.700;2023-08-30T06:18:59;27.13;;;17.00;;
58581;SDS011;44361;51.476;5.700;2023-08-30T06:21:25;24.20;;;15.90;;
58581;SDS011;44361;51.476;5.700;2023-08-30T06:23:50;20.90;;;15.20;;
58581;SDS011;44361;51.476;5.700;2023-08-30T06:26:16;23.95;;;15.68;;
58581;SDS011;44361;51.476;5.700;2023-08-30T06:28:42;24.42;;;15.38;;
58581;SDS011;44361;51.476;5.700;2023-08-30T06:31:09;25.15;;;15.38;;
58581;SDS011;44361;51.476;5.700;2023-08-30T06:33:35;23.75;;;14.32;;
58581;SDS011;44361;51.476;5.700;2023-08-30T06:36:01;22.80;;;15.25;;
58581;SDS011;44361;51.476;5.700;2023-08-30T06:38:27;22.80;;;14.02;;
58581;SDS011;44361;51.476;5.700;2023-08-30T06:40:52;21.02;;;14.02;;
58581;SDS011;44361;51.476;5.700;2023-08-30T06:43:18;21.20;;;13.20;;
58581;SDS011;44361;51.476;5.700;2023-08-30T06:45:44;22.00;;;12.90;;
58581;SDS011;44361;51.476;5.700;2023-08-30T06:48:09;21.98;;;13.02;;
58581;SDS011;44361;51.476;5.700;2023-08-30T06:50:35;17.42;;;12.90;;
58581;SDS011;44361;51.476;5.700;2023-08-30T06:53:01;20.02;;;11.88;;
58581;SDS011;44361;51.476;5.700;2023-08-30T06:55:28;19.02;;;11.43;;
58581;SDS011;44361;51.476;5.700;2023-08-30T06:57:53;16.02;;;10.95;;
58581;SDS011;44361;51.476;5.700;2023-08-30T07:00:20;18.13;;;11.15;;
58581;SDS011;44361;51.476;5.700;2023-08-30T07:02:45;22.83;;;11.13;;
58581;SDS011;44361;51.476;5.700;2023-08-30T07:05:11;19.42;;;11.80;;
58581;SDS011;44361;51.476;5.700;2023-08-30T07:07:37;20.55;;;11.77;;
58581;SDS011;44361;51.476;5.700;2023-08-30T07:10:03;24.25;;;12.25;;
58581;SDS011;44361;51.476;5.700;2023-08-30T07:12:29;19.65;;;11.98;;
58581;SDS011;44361;51.476;5.700;2023-08-30T07:14:55;20.80;;;11.30;;
58581;SDS011;44361;51.476;5.700;2023-08-30T07:17:20;17.67;;;11.70;;
58581;SDS011;44361;51.476;5.700;2023-08-30T07:19:46;19.60;;;11.95;;
58581;SDS011;44361;51.476;5.700;2023-08-30T07:22:12;19.58;;;12.35;;
58581;SDS011;44361;51.476;5.700;2023-08-30T07:24:37;20.42;;;12.68;;
58581;SDS011;44361;51.476;5.700;2023-08-30T07:27:03;23.80;;;12.48;;
58581;SDS011;44361;51.476;5.700;2023-08-30T07:29:29;22.25;;;13.02;;
58581;SDS011;44361;51.476;5.700;2023-08-30T07:31:54;22.48;;;12.95;;
58581;SDS011;44361;51.476;5.700;2023-08-30T07:34:20;24.15;;;14.18;;
58581;SDS011;44361;51.476;5.700;2023-08-30T07:36:46;23.33;;;12.90;;
58581;SDS011;44361;51.476;5.700;2023-08-30T07:39:11;22.13;;;13.68;;
58581;SDS011;44361;51.476;5.700;2023-08-30T07:41:37;21.65;;;13.18;;
58581;SDS011;44361;51.476;5.700;2023-08-30T07:44:02;22.55;;;13.90;;
58581;SDS011;44361;51.476;5.700;2023-08-30T07:46:28;19.20;;;12.63;;
58581;SDS011;44361;51.476;5.700;2023-08-30T07:48:54;21.92;;;12.90;;
58581;SDS011;44361;51.476;5.700;2023-08-30T07:51:20;22.05;;;12.73;;
58581;SDS011;44361;51.476;5.700;2023-08-30T07:53:46;20.58;;;13.20;;
58581;SDS011;44361;51.476;5.700;2023-08-30T07:56:11;20.77;;;12.27;;
58581;SDS011;44361;51.476;5.700;2023-08-30T07:58:37;17.58;;;11.02;;
58581;SDS011;44361;51.476;5.700;2023-08-30T08:01:02;21.42;;;11.10;;
58581;SDS011;44361;51.476;5.700;2023-08-30T08:03:28;17.20;;;9.98;;
58581;SDS011;44361;51.476;5.700;2023-08-30T08:05:54;14.25;;;9.10;;
58581;SDS011;44361;51.476;5.700;2023-08-30T08:08:19;16.50;;;9.45;;
58581;SDS011;44361;51.476;5.700;2023-08-30T08:10:45;12.15;;;8.15;;
58581;SDS011;44361;51.476;5.700;2023-08-30T08:13:11;13.57;;;7.82;;
58581;SDS011;44361;51.476;5.700;2023-08-30T08:15:37;12.80;;;6.95;;
58581;SDS011;44361;51.476;5.700;2023-08-30T08:18:03;10.65;;;7.65;;
58581;SDS011;44361;51.476;5.700;2023-08-30T08:20:29;14.15;;;7.95;;
58581;SDS011;44361;51.476;5.700;2023-08-30T08:22:55;11.02;;;6.68;;
58581;SDS011;44361;51.476;5.700;2023-08-30T08:25:21;12.23;;;6.55;;
58581;SDS011;44361;51.476;5.700;2023-08-30T08:27:48;14.07;;;7.18;;
58581;SDS011;44361;51.476;5.700;2023-08-30T08:30:14;8.82;;;6.45;;
58581;SDS011;44361;51.476;5.700;2023-08-30T08:32:40;10.75;;;6.88;;
58581;SDS011;44361;51.476;5.700;2023-08-30T08:35:06;12.60;;;6.68;;
58581;SDS011;44361;51.476;5.700;2023-08-30T08:37:32;9.95;;;6.13;;
58581;SDS011;44361;51.476;5.700;2023-08-30T08:39:58;12.05;;;6.63;;
58581;SDS011;44361;51.476;5.700;2023-08-30T08:42:23;11.32;;;6.57;;
58581;SDS011;44361;51.476;5.700;2023-08-30T08:44:50;15.52;;;6.57;;
58581;SDS011;44361;51.476;5.700;2023-08-30T08:47:18;11.80;;;6.85;;
58581;SDS011;44361;51.476;5.700;2023-08-30T08:49:45;9.75;;;6.30;;
58581;SDS011;44361;51.476;5.700;2023-08-30T08:52:12;8.15;;;5.75;;
58581;SDS011;44361;51.476;5.700;2023-08-30T08:54:39;8.90;;;5.80;;
58581;SDS011;44361;51.476;5.700;2023-08-30T08:57:06;9.35;;;6.00;;
58581;SDS011;44361;51.476;5.700;2023-08-30T08:59:32;11.35;;;6.22;;
58581;SDS011;44361;51.476;5.700;2023-08-30T09:01:58;12.45;;;6.47;;
58581;SDS011;44361;51.476;5.700;2023-08-30T09:04:25;9.57;;;6.15;;
58581;SDS011;44361;51.476;5.700;2023-08-30T09:06:51;14.88;;;6.15;;
58581;SDS011;44361;51.476;5.700;2023-08-30T09:09:16;13.55;;;6.75;;
58581;SDS011;44361;51.476;5.700;2023-08-30T09:11:42;11.63;;;5.95;;
58581;SDS011;44361;51.476;5.700;2023-08-30T09:14:08;13.32;;;7.07;;
58581;SDS011;44361;51.476;5.700;2023-08-30T09:16:34;8.90;;;5.53;;
58581;SDS011;44361;51.476;5.700;2023-08-30T09:19:00;10.82;;;6.43;;
58581;SDS011;44361;51.476;5.700;2023-08-30T09:21:27;8.45;;;5.97;;
58581;SDS011;44361;51.476;5.700;2023-08-30T09:24:11;10.98;;;6.50;;
58581;SDS011;44361;51.476;5.700;2023-08-30T09:26:36;11.38;;;6.97;;
58581;SDS011;44361;51.476;5.700;2023-08-30T09:29:07;13.60;;;6.70;;
58581;SDS011;44361;51.476;5.700;2023-08-30T09:31:37;10.75;;;6.70;;
58581;SDS011;44361;51.476;5.700;2023-08-30T09:34:04;11.32;;;7.20;;
58581;SDS011;44361;51.476;5.700;2023-08-30T09:36:34;10.75;;;6.47;;
58581;SDS011;44361;51.476;5.700;2023-08-30T09:39:12;7.80;;;5.32;;
58581;SDS011;44361;51.476;5.700;2023-08-30T09:41:43;9.15;;;5.80;;
58581;SDS011;44361;51.476;5.700;2023-08-30T09:44:10;10.40;;;5.50;;
58581;SDS011;44361;51.476;5.700;2023-08-30T09:46:46;8.48;;;5.95;;
58581;SDS011;44361;51.476;5.700;2023-08-30T09:49:15;11.57;;;5.45;;
58581;SDS011;44361;51.476;5.700;2023-08-30T09:51:43;7.00;;;5.07;;
58581;SDS011;44361;51.476;5.700;2023-08-30T09:54:14;8.18;;;5.85;;
58581;SDS011;44361;51.476;5.700;2023-08-30T09:56:42;7.43;;;6.07;;
58581;SDS011;44361;51.476;5.700;2023-08-30T09:59:11;8.90;;;5.85;;
58581;SDS011;44361;51.476;5.700;2023-08-30T10:01:39;8.48;;;6.18;;
58581;SDS011;44361;51.476;5.700;2023-08-30T10:04:06;8.30;;;6.15;;
58581;SDS011;44361;51.476;5.700;2023-08-30T10:06:33;8.27;;;6.07;;
58581;SDS011;44361;51.476;5.700;2023-08-30T10:09:00;13.80;;;6.30;;
58581;SDS011;44361;51.476;5.700;2023-08-30T10:11:28;9.60;;;6.65;;
58581;SDS011;44361;51.476;5.700;2023-08-30T10:13:57;9.38;;;6.82;;
58581;SDS011;44361;51.476;5.700;2023-08-30T10:16:24;9.38;;;6.50;;
58581;SDS011;44361;51.476;5.700;2023-08-30T10:18:54;7.05;;;5.63;;
58581;SDS011;44361;51.476;5.700;2023-08-30T10:21:24;9.05;;;5.15;;
58581;SDS011;44361;51.476;5.700;2023-08-30T10:23:52;8.20;;;5.20;;
58581;SDS011;44361;51.476;5.700;2023-08-30T10:26:20;5.85;;;4.40;;
58581;SDS011;44361;51.476;5.700;2023-08-30T10:28:49;6.45;;;4.20;;
58581;SDS011;44361;51.476;5.700;2023-08-30T10:31:18;5.07;;;3.85;;
58581;SDS011;44361;51.476;5.700;2023-08-30T10:33:46;5.55;;;4.07;;
58581;SDS011;44361;51.476;5.700;2023-08-30T10:36:24;29.38;;;15.98;;
58581;SDS011;44361;51.476;5.700;2023-08-30T10:38:52;7.60;;;4.60;;
58581;SDS011;44361;51.476;5.700;2023-08-30T10:41:22;7.95;;;4.88;;
58581;SDS011;44361;51.476;5.700;2023-08-30T10:43:50;7.10;;;4.25;;
58581;SDS011;44361;51.476;5.700;2023-08-30T10:46:17;5.18;;;3.95;;
58581;SDS011;44361;51.476;5.700;2023-08-30T10:49:08;6.60;;;4.72;;
58581;SDS011;44361;51.476;5.700;2023-08-30T10:51:39;8.27;;;5.00;;
58581;SDS011;44361;51.476;5.700;2023-08-30T10:56:57;7.45;;;5.18;;
58581;SDS011;44361;51.476;5.700;2023-08-30T10:59:25;9.35;;;4.82;;
58581;SDS011;44361;51.476;5.700;2023-08-30T11:01:52;6.30;;;4.60;;
58581;SDS011;44361;51.476;5.700;2023-08-30T11:04:19;5.35;;;4.40;;
58581;SDS011;44361;51.476;5.700;2023-08-30T11:06:46;9.05;;;4.60;;
58581;SDS011;44361;51.476;5.700;2023-08-30T11:09:16;11.43;;;4.68;;
58581;SDS011;44361;51.476;5.700;2023-08-30T11:11:47;6.53;;;4.40;;
58581;SDS011;44361;51.476;5.700;2023-08-30T11:14:14;6.82;;;4.30;;
58581;SDS011;44361;51.476;5.700;2023-08-30T11:16:40;6.13;;;3.72;;
58581;SDS011;44361;51.476;5.700;2023-08-30T11:19:07;6.00;;;4.15;;
58581;SDS011;44361;51.476;5.700;2023-08-30T11:21:36;6.13;;;4.55;;
58581;SDS011;44361;51.476;5.700;2023-08-30T11:24:06;5.32;;;4.60;;
58581;SDS011;44361;51.476;5.700;2023-08-30T11:26:32;7.70;;;4.60;;
58581;SDS011;44361;51.476;5.700;2023-08-30T11:29:03;7.20;;;5.15;;
58581;SDS011;44361;51.476;5.700;2023-08-30T11:31:32;5.75;;;4.60;;
58581;SDS011;44361;51.476;5.700;2023-08-30T11:33:58;6.45;;;4.32;;
58581;SDS011;44361;51.476;5.700;2023-08-30T11:36:29;6.00;;;4.10;;
58581;SDS011;44361;51.476;5.700;2023-08-30T11:38:56;5.47;;;4.00;;
58581;SDS011;44361;51.476;5.700;2023-08-30T11:41:23;9.65;;;3.80;;
58581;SDS011;44361;51.476;5.700;2023-08-30T11:43:50;5.45;;;3.90;;
58581;SDS011;44361;51.476;5.700;2023-08-30T11:46:17;5.30;;;3.50;;
58581;SDS011;44361;51.476;5.700;2023-08-30T11:48:43;5.50;;;3.67;;
58581;SDS011;44361;51.476;5.700;2023-08-30T11:51:11;8.75;;;3.83;;
58581;SDS011;44361;51.476;5.700;2023-08-30T11:53:37;6.30;;;3.47;;
58581;SDS011;44361;51.476;5.700;2023-08-30T11:56:04;7.30;;;3.88;;
58581;SDS011;44361;51.476;5.700;2023-08-30T11:58:34;4.93;;;3.72;;
58581;SDS011;44361;51.476;5.700;2023-08-30T12:01:03;4.22;;;3.28;;
58581;SDS011;44361;51.476;5.700;2023-08-30T12:03:30;6.35;;;3.72;;
58581;SDS011;44361;51.476;5.700;2023-08-30T12:05:57;4.50;;;3.78;;
58581;SDS011;44361;51.476;5.700;2023-08-30T12:08:26;8.57;;;5.15;;
58581;SDS011;44361;51.476;5.700;2023-08-30T12:10:56;6.78;;;4.38;;
58581;SDS011;44361;51.476;5.700;2023-08-30T12:15:53;6.78;;;5.07;;
58581;SDS011;44361;51.476;5.700;2023-08-30T12:18:27;6.47;;;4.50;;
58581;SDS011;44361;51.476;5.700;2023-08-30T12:20:57;8.50;;;5.80;;
58581;SDS011;44361;51.476;5.700;2023-08-30T12:23:25;5.53;;;3.65;;
58581;SDS011;44361;51.476;5.700;2023-08-30T12:26:05;6.63;;;4.00;;
58581;SDS011;44361;51.476;5.700;2023-08-30T12:28:33;6.53;;;3.50;;
58581;SDS011;44361;51.476;5.700;2023-08-30T12:31:00;7.25;;;3.40;;
58581;SDS011;44361;51.476;5.700;2023-08-30T12:33:27;10.23;;;4.07;;
58581;SDS011;44361;51.476;5.700;2023-08-30T12:35:53;5.78;;;3.33;;
58581;SDS011;44361;51.476;5.700;2023-08-30T12:38:20;4.75;;;2.53;;
58581;SDS011;44361;51.476;5.700;2023-08-30T12:40:47;5.60;;;1.88;;
58581;SDS011;44361;51.476;5.700;2023-08-30T12:43:14;8.23;;;2.10;;
58581;SDS011;44361;51.476;5.700;2023-08-30T12:45:40;5.38;;;2.15;;
58581;SDS011;44361;51.476;5.700;2023-08-30T12:48:06;4.75;;;1.73;;
58581;SDS011;44361;51.476;5.700;2023-08-30T12:50:32;8.90;;;1.90;;
58581;SDS011;44361;51.476;5.700;2023-08-30T12:53:00;7.22;;;1.80;;
58581;SDS011;44361;51.476;5.700;2023-08-30T12:55:26;6.25;;;2.00;;
58581;SDS011;44361;51.476;5.700;2023-08-30T12:57:51;5.45;;;1.83;;
58581;SDS011;44361;51.476;5.700;2023-08-30T13:00:18;6.18;;;2.15;;
58581;SDS011;44361;51.476;5.700;2023-08-30T13:02:44;7.95;;;1.80;;
58581;SDS011;44361;51.476;5.700;2023-08-30T13:05:10;7.47;;;2.45;;
58581;SDS011;44361;51.476;5.700;2023-08-30T13:07:36;10.82;;;2.20;;
58581;SDS011;44361;51.476;5.700;2023-08-30T13:10:02;9.75;;;2.47;;
58581;SDS011;44361;51.476;5.700;2023-08-30T13:12:28;7.75;;;2.30;;
58581;SDS011;44361;51.476;5.700;2023-08-30T13:14:54;8.85;;;2.03;;
58581;SDS011;44361;51.476;5.700;2023-08-30T13:17:19;5.88;;;1.80;;
58581;SDS011;44361;51.476;5.700;2023-08-30T13:19:45;9.07;;;2.00;;
58581;SDS011;44361;51.476;5.700;2023-08-30T13:22:10;7.43;;;1.92;;
58581;SDS011;44361;51.476;5.700;2023-08-30T13:24:36;6.65;;;1.85;;
58581;SDS011;44361;51.476;5.700;2023-08-30T13:27:02;4.40;;;1.30;;
58581;SDS011;44361;51.476;5.700;2023-08-30T13:29:28;7.20;;;1.60;;
58581;SDS011;44361;51.476;5.700;2023-08-30T13:31:54;6.95;;;2.15;;
58581;SDS011;44361;51.476;5.700;2023-08-30T13:34:19;4.70;;;1.98;;
58581;SDS011;44361;51.476;5.700;2023-08-30T13:36:45;7.30;;;1.90;;
58581;SDS011;44361;51.476;5.700;2023-08-30T13:39:10;6.38;;;1.88;;
58581;SDS011;44361;51.476;5.700;2023-08-30T13:41:36;7.32;;;1.67;;
58581;SDS011;44361;51.476;5.700;2023-08-30T13:44:02;4.95;;;1.30;;
58581;SDS011;44361;51.476;5.700;2023-08-30T13:46:30;13.60;;;2.05;;
58581;SDS011;44361;51.476;5.700;2023-08-30T13:48:56;10.27;;;1.83;;
58581;SDS011;44361;51.476;5.700;2023-08-30T13:51:22;4.38;;;1.52;;
58581;SDS011;44361;51.476;5.700;2023-08-30T13:53:49;6.72;;;1.60;;
58581;SDS011;44361;51.476;5.700;2023-08-30T13:56:15;7.35;;;1.98;;
58581;SDS011;44361;51.476;5.700;2023-08-30T13:58:40;7.30;;;1.50;;
58581;SDS011;44361;51.476;5.700;2023-08-30T14:01:06;7.57;;;1.65;;
58581;SDS011;44361;51.476;5.700;2023-08-30T14:03:32;5.95;;;1.55;;
58581;SDS011;44361;51.476;5.700;2023-08-30T14:05:58;5.68;;;1.25;;
58581;SDS011;44361;51.476;5.700;2023-08-30T14:08:23;3.50;;;1.30;;
58581;SDS011;44361;51.476;5.700;2023-08-30T14:10:49;7.45;;;1.63;;
58581;SDS011;44361;51.476;5.700;2023-08-30T14:13:14;7.43;;;1.60;;
58581;SDS011;44361;51.476;5.700;2023-08-30T14:15:40;7.35;;;1.50;;
58581;SDS011;44361;51.476;5.700;2023-08-30T14:18:07;5.65;;;1.58;;
58581;SDS011;44361;51.476;5.700;2023-08-30T14:20:33;8.10;;;1.65;;
58581;SDS011;44361;51.476;5.700;2023-08-30T14:22:58;8.90;;;1.88;;
58581;SDS011;44361;51.476;5.700;2023-08-30T14:25:24;3.20;;;1.35;;
58581;SDS011;44361;51.476;5.700;2023-08-30T14:27:49;5.75;;;1.38;;
58581;SDS011;44361;51.476;5.700;2023-08-30T14:30:15;6.07;;;1.00;;
58581;SDS011;44361;51.476;5.700;2023-08-30T14:32:41;6.43;;;1.20;;
58581;SDS011;44361;51.476;5.700;2023-08-30T14:35:07;5.28;;;1.45;;
58581;SDS011;44361;51.476;5.700;2023-08-30T14:37:33;6.50;;;1.42;;
58581;SDS011;44361;51.476;5.700;2023-08-30T14:40:03;2.78;;;1.10;;